createdAt,value
2023-03-17T00:00:05.478Z,5.10
2023-03-17T00:03:01.291Z,4.72
2023-03-17T00:05:49.448Z,4.82
2023-03-17T00:08:38.306Z,5.30
2023-03-17T00:11:28.261Z,5.30
2023-03-17T00:14:17.027Z,5.28
2023-03-17T00:17:06.057Z,5.57
2023-03-17T00:19:53.880Z,5.32
2023-03-17T00:22:41.345Z,5.43
2023-03-17T00:25:31.445Z,5.20
2023-03-17T00:28:21.366Z,5.43
2023-03-17T00:31:15.778Z,5.10
2023-03-17T00:34:04.974Z,5.43
2023-03-17T00:36:54.810Z,5.00
2023-03-17T00:39:43.933Z,5.38
2023-03-17T00:42:31.855Z,5.63
2023-03-17T00:45:21.675Z,5.47
2023-03-17T00:48:16.542Z,5.10
2023-03-17T00:51:06.350Z,6.38
2023-03-17T00:53:54.059Z,5.43
2023-03-17T00:56:44.240Z,6.50
2023-03-17T00:59:39.538Z,5.68
2023-03-17T01:02:31.582Z,5.85
2023-03-17T01:05:22.698Z,5.93
2023-03-17T01:08:12.614Z,5.82
2023-03-17T01:11:02.599Z,5.63
2023-03-17T01:13:50.096Z,5.40
2023-03-17T01:16:38.995Z,5.78
2023-03-17T01:19:27.450Z,5.63
2023-03-17T01:22:15.346Z,6.40
2023-03-17T01:25:05.258Z,5.70
2023-03-17T01:27:53.686Z,5.43
2023-03-17T01:30:42.759Z,5.07
2023-03-17T01:33:30.671Z,5.38
2023-03-17T01:36:18.338Z,5.65
2023-03-17T01:39:07.786Z,5.85
2023-03-17T01:42:01.589Z,5.53
2023-03-17T01:45:07.423Z,6.28
2023-03-17T01:47:54.902Z,5.57
2023-03-17T01:50:43.891Z,5.80
2023-03-17T01:53:32.527Z,5.63
2023-03-17T01:56:21.946Z,5.68
2023-03-17T01:59:16.152Z,5.63
2023-03-17T02:02:09.494Z,5.75
2023-03-17T02:07:45.211Z,6.65
2023-03-17T02:10:33.898Z,6.13
2023-03-17T02:13:22.271Z,6.03
2023-03-17T02:16:19.541Z,5.45
2023-03-17T02:19:08.820Z,5.60
2023-03-17T02:21:59.709Z,5.95
2023-03-17T02:24:50.685Z,5.70
2023-03-17T02:27:41.742Z,5.85
2023-03-17T02:30:30.432Z,6.40
2023-03-17T02:33:17.970Z,6.32
2023-03-17T02:36:06.505Z,6.28
2023-03-17T02:38:56.056Z,5.82
2023-03-17T02:41:43.854Z,5.60
2023-03-17T02:44:33.537Z,6.30
2023-03-17T02:47:22.470Z,6.57
2023-03-17T02:50:19.534Z,6.00
2023-03-17T02:53:08.420Z,6.28
2023-03-17T02:55:58.208Z,7.13
2023-03-17T02:58:46.732Z,6.28
2023-03-17T03:01:35.924Z,5.63
2023-03-17T03:04:26.771Z,6.30
2023-03-17T03:07:14.680Z,5.72
2023-03-17T03:10:02.575Z,6.53
2023-03-17T03:12:52.520Z,6.60
2023-03-17T03:15:44.157Z,5.75
2023-03-17T03:18:31.434Z,6.30
2023-03-17T03:21:20.171Z,5.70
2023-03-17T03:24:08.893Z,6.00
2023-03-17T03:26:56.706Z,6.35
2023-03-17T03:29:46.618Z,6.25
2023-03-17T03:32:34.348Z,6.03
2023-03-17T03:35:22.490Z,5.60
2023-03-17T03:38:10.751Z,6.05
2023-03-17T03:40:58.290Z,5.95
2023-03-17T03:43:46.516Z,5.75
2023-03-17T03:46:36.192Z,5.93
2023-03-17T03:49:24.592Z,5.78
2023-03-17T03:52:12.620Z,6.40
2023-03-17T03:55:00.336Z,5.53
2023-03-17T03:57:48.045Z,6.00
2023-03-17T04:00:35.949Z,5.57
2023-03-17T04:03:25.149Z,5.65
2023-03-17T04:06:12.968Z,5.63
2023-03-17T04:09:00.601Z,5.90
2023-03-17T04:11:48.641Z,5.65
2023-03-17T04:14:37.013Z,6.20
2023-03-17T04:17:24.917Z,5.90
2023-03-17T04:20:16.368Z,6.43
2023-03-17T04:23:04.370Z,7.25
2023-03-17T04:25:53.776Z,7.32
2023-03-17T04:28:41.437Z,6.97
2023-03-17T04:31:29.451Z,6.20
2023-03-17T04:34:20.006Z,6.45
2023-03-17T04:37:09.481Z,5.72
2023-03-17T04:39:56.990Z,6.00
2023-03-17T04:42:45.004Z,6.30
2023-03-17T04:45:32.865Z,5.22
2023-03-17T04:48:21.567Z,5.88
2023-03-17T04:51:11.684Z,5.70
2023-03-17T04:54:01.952Z,5.50
2023-03-17T04:56:49.992Z,6.10
2023-03-17T04:59:37.788Z,6.00
2023-03-17T05:02:26.512Z,6.07
2023-03-17T05:05:14.412Z,5.53
2023-03-17T05:08:01.824Z,5.45
2023-03-17T05:10:51.384Z,5.72
2023-03-17T05:13:41.220Z,5.10
2023-03-17T05:16:28.694Z,5.65
2023-03-17T05:19:16.551Z,5.50
2023-03-17T05:22:04.264Z,5.75
2023-03-17T05:24:51.735Z,5.70
2023-03-17T05:27:41.158Z,5.10
2023-03-17T05:30:28.807Z,5.78
2023-03-17T05:33:16.971Z,5.63
2023-03-17T05:36:05.096Z,5.68
2023-03-17T05:38:53.422Z,6.25
2023-03-17T05:41:41.354Z,5.53
2023-03-17T05:44:30.453Z,5.50
2023-03-17T05:47:18.631Z,5.32
2023-03-17T05:50:08.392Z,5.63
2023-03-17T05:52:56.470Z,5.32
2023-03-17T05:55:44.464Z,5.38
2023-03-17T05:58:32.076Z,5.05
2023-03-17T06:01:21.386Z,5.35
2023-03-17T06:04:09.731Z,5.43
2023-03-17T06:06:58.102Z,4.93
2023-03-17T06:09:45.854Z,4.85
2023-03-17T06:12:34.052Z,4.63
2023-03-17T06:15:22.265Z,5.47
2023-03-17T06:18:12.060Z,5.25
2023-03-17T06:20:59.818Z,5.60
2023-03-17T06:23:47.567Z,5.28
2023-03-17T06:26:35.634Z,4.95
2023-03-17T06:29:23.629Z,4.28
2023-03-17T06:32:20.389Z,4.68
2023-03-17T06:35:10.905Z,5.00
2023-03-17T06:37:59.366Z,6.70
2023-03-17T06:40:47.896Z,5.80
2023-03-17T06:43:36.657Z,5.50
2023-03-17T06:46:24.959Z,5.40
2023-03-17T06:49:14.061Z,5.20
2023-03-17T06:52:03.459Z,5.80
2023-03-17T06:54:51.863Z,5.05
2023-03-17T06:57:39.656Z,5.13
2023-03-17T07:00:28.061Z,4.82
2023-03-17T07:03:16.469Z,4.95
2023-03-17T07:06:04.324Z,4.90
2023-03-17T07:08:53.908Z,4.50
2023-03-17T07:11:41.654Z,5.03
2023-03-17T07:14:29.914Z,5.13
2023-03-17T07:17:18.901Z,4.70
2023-03-17T07:20:07.733Z,4.45
2023-03-17T07:22:55.049Z,4.82
2023-03-17T07:25:45.627Z,5.10
2023-03-17T07:28:32.897Z,4.80
2023-03-17T07:31:20.220Z,4.90
2023-03-17T07:34:08.139Z,5.63
2023-03-17T07:36:56.177Z,4.47
2023-03-17T07:39:44.834Z,3.92
2023-03-17T07:42:34.648Z,4.45
2023-03-17T07:45:25.856Z,3.90
2023-03-17T07:48:13.760Z,3.63
2023-03-17T07:51:02.078Z,4.00
2023-03-17T07:53:51.190Z,3.92
2023-03-17T07:56:39.608Z,3.78
2023-03-17T07:59:29.336Z,3.75
2023-03-17T08:02:19.841Z,3.95
2023-03-17T08:05:09.346Z,3.70
2023-03-17T08:07:57.011Z,4.20
2023-03-17T08:10:45.136Z,3.83
2023-03-17T08:13:33.483Z,4.22
2023-03-17T08:16:22.568Z,3.75
2023-03-17T08:19:11.226Z,3.72
2023-03-17T08:21:59.111Z,3.60
2023-03-17T08:24:46.123Z,3.40
2023-03-17T08:27:33.980Z,3.50
2023-03-17T08:30:21.973Z,3.90
2023-03-17T08:33:10.568Z,3.10
2023-03-17T08:35:58.008Z,3.33
2023-03-17T08:38:47.024Z,3.55
2023-03-17T08:41:34.144Z,3.33
2023-03-17T08:44:23.917Z,4.00
2023-03-17T08:47:11.365Z,3.63
2023-03-17T08:50:01.089Z,3.50
2023-03-17T08:52:49.018Z,3.65
2023-03-17T08:55:37.064Z,3.20
2023-03-17T08:58:25.308Z,3.45
2023-03-17T09:01:13.029Z,2.90
2023-03-17T09:04:00.210Z,3.50
2023-03-17T09:07:02.201Z,2.95
2023-03-17T09:09:50.995Z,2.85
2023-03-17T09:12:39.598Z,2.97
2023-03-17T09:15:26.932Z,2.80
2023-03-17T09:18:14.960Z,2.55
2023-03-17T09:21:03.811Z,3.45
2023-03-17T09:23:56.968Z,2.65
2023-03-17T09:26:44.588Z,3.10
2023-03-17T09:29:36.849Z,3.20
2023-03-17T09:32:24.753Z,3.60
2023-03-17T09:35:13.233Z,2.78
2023-03-17T09:38:01.295Z,2.65
2023-03-17T09:40:56.551Z,2.95
2023-03-17T09:43:59.004Z,2.65
2023-03-17T09:46:54.703Z,2.65
2023-03-17T09:49:48.537Z,2.22
2023-03-17T09:52:41.044Z,2.80
2023-03-17T09:55:34.463Z,2.42
2023-03-17T09:58:34.156Z,2.20
2023-03-17T10:01:25.214Z,2.92
2023-03-17T10:04:18.866Z,2.28
2023-03-17T10:07:11.216Z,2.55
2023-03-17T10:10:03.903Z,2.47
2023-03-17T10:13:08.481Z,2.33
2023-03-17T10:16:05.512Z,2.38
2023-03-17T10:19:00.137Z,2.28
2023-03-17T10:21:54.375Z,1.95
2023-03-17T10:24:47.946Z,2.15
2023-03-17T10:27:39.058Z,2.20
2023-03-17T10:30:27.824Z,1.98
2023-03-17T10:33:17.519Z,1.70
2023-03-17T10:36:10.966Z,1.85
2023-03-17T10:38:58.073Z,1.70
2023-03-17T10:41:54.779Z,1.55
2023-03-17T10:44:46.148Z,1.83
2023-03-17T10:47:35.814Z,1.50
2023-03-17T10:50:28.855Z,1.60
2023-03-17T10:53:28.472Z,1.70
2023-03-17T10:56:24.645Z,1.30
2023-03-17T10:59:20.754Z,1.60
2023-03-17T11:02:19.695Z,1.50
2023-03-17T11:05:19.928Z,1.60
2023-03-17T11:08:16.567Z,1.65
2023-03-17T11:11:08.667Z,1.77
2023-03-17T11:14:04.967Z,1.83
2023-03-17T11:16:57.173Z,1.98
2023-03-17T11:19:55.089Z,1.50
2023-03-17T11:22:46.922Z,2.65
2023-03-17T11:25:39.633Z,1.80
2023-03-17T11:28:32.463Z,2.13
2023-03-17T11:31:28.812Z,2.00
2023-03-17T11:34:23.725Z,9.50
2023-03-17T11:37:23.145Z,2.47
2023-03-17T11:40:19.584Z,1.73
2023-03-17T11:43:24.697Z,2.15
2023-03-17T11:46:17.168Z,2.00
2023-03-17T11:49:15.216Z,2.40
2023-03-17T11:52:07.781Z,2.15
2023-03-17T11:55:04.791Z,1.45
2023-03-17T11:57:58.281Z,1.50
2023-03-17T12:03:46.824Z,1.70
2023-03-17T12:06:39.746Z,1.83
2023-03-17T12:09:32.379Z,1.92
2023-03-17T12:12:32.184Z,2.08
2023-03-17T12:15:29.911Z,1.90
2023-03-17T12:18:22.758Z,2.95
2023-03-17T12:21:21.917Z,1.90
2023-03-17T12:24:14.902Z,2.50
2023-03-17T12:27:09.054Z,1.90
2023-03-17T12:30:00.832Z,2.00
2023-03-17T12:32:57.686Z,2.08
2023-03-17T12:35:47.260Z,1.48
2023-03-17T12:38:39.727Z,2.10
2023-03-17T12:41:47.911Z,2.30
2023-03-17T12:44:53.777Z,2.53
2023-03-17T12:47:56.362Z,2.40
2023-03-17T12:51:08.003Z,2.10
2023-03-17T12:53:56.137Z,2.20
2023-03-17T12:56:47.952Z,1.98
2023-03-17T12:59:38.097Z,2.13
2023-03-17T13:02:37.002Z,2.40
2023-03-17T13:05:35.531Z,2.50
2023-03-17T13:08:31.481Z,2.30
2023-03-17T13:11:28.691Z,2.20
2023-03-17T13:14:25.729Z,2.47
2023-03-17T13:17:32.401Z,2.40
2023-03-17T13:20:19.797Z,3.47
2023-03-17T13:23:17.919Z,2.85
2023-03-17T13:26:07.292Z,3.47
2023-03-17T13:28:55.265Z,2.75
2023-03-17T13:31:43.473Z,2.75
2023-03-17T13:34:32.362Z,3.45
2023-03-17T13:37:26.589Z,3.17
2023-03-17T13:40:21.544Z,3.03
2023-03-17T13:43:30.119Z,3.72
2023-03-17T13:46:25.569Z,3.08
2023-03-17T13:49:24.363Z,3.08
2023-03-17T13:52:17.807Z,2.78
2023-03-17T13:58:17.642Z,3.05
2023-03-17T14:01:14.816Z,3.10
2023-03-17T14:04:10.645Z,3.45
2023-03-17T14:07:07.426Z,3.40
2023-03-17T14:10:01.817Z,3.05
2023-03-17T14:12:58.338Z,2.92
2023-03-17T14:15:52.650Z,3.00
2023-03-17T14:18:44.499Z,3.45
2023-03-17T14:21:34.074Z,3.10
2023-03-17T14:24:24.794Z,2.70
2023-03-17T14:27:16.541Z,3.05
2023-03-17T14:30:20.967Z,2.90
2023-03-17T14:33:19.606Z,3.17
2023-03-17T14:36:14.580Z,3.38
2023-03-17T14:39:02.356Z,2.83
2023-03-17T14:42:00.966Z,3.67
2023-03-17T14:44:48.244Z,3.58
2023-03-17T14:47:40.850Z,3.30
2023-03-17T14:50:32.255Z,3.00
2023-03-17T14:53:22.702Z,3.10
2023-03-17T14:56:10.905Z,3.40
2023-03-17T14:59:09.863Z,3.58
2023-03-17T15:01:59.386Z,3.08
2023-03-17T15:04:55.379Z,3.28
2023-03-17T15:07:44.207Z,2.80
2023-03-17T15:10:45.162Z,3.00
2023-03-17T15:13:37.638Z,3.10
2023-03-17T15:16:29.553Z,3.30
2023-03-17T15:19:24.117Z,3.25
2023-03-17T15:22:27.015Z,3.20
2023-03-17T15:25:29.041Z,4.00
2023-03-17T15:28:20.471Z,3.55
2023-03-17T15:31:14.964Z,3.45
2023-03-17T15:34:03.187Z,2.97
2023-03-17T15:36:50.893Z,3.08
2023-03-17T15:39:39.628Z,3.40
2023-03-17T15:42:29.413Z,3.42
2023-03-17T15:45:19.360Z,3.42
2023-03-17T15:48:07.484Z,3.97
2023-03-17T15:50:57.309Z,3.80
2023-03-17T15:53:45.567Z,3.10
2023-03-17T15:56:34.774Z,3.55
2023-03-17T15:59:22.274Z,3.40
2023-03-17T16:05:17.465Z,3.15
2023-03-17T16:08:05.168Z,2.90
2023-03-17T16:10:53.577Z,2.65
2023-03-17T16:13:41.463Z,3.30
2023-03-17T16:16:34.803Z,3.22
2023-03-17T16:22:40.355Z,2.85
2023-03-17T16:25:30.154Z,2.83
2023-03-17T16:28:19.908Z,2.58
2023-03-17T16:31:20.405Z,2.78
2023-03-17T16:34:18.173Z,2.85
2023-03-17T16:37:06.815Z,2.80
2023-03-17T16:39:56.142Z,2.92
2023-03-17T16:42:44.494Z,2.90
2023-03-17T16:45:34.144Z,2.83
2023-03-17T16:48:22.147Z,2.80
2023-03-17T16:51:09.899Z,3.03
2023-03-17T16:53:58.348Z,2.75
2023-03-17T16:56:48.027Z,2.85
2023-03-17T16:59:36.446Z,3.22
2023-03-17T17:02:24.321Z,3.53
2023-03-17T17:05:17.637Z,3.15
2023-03-17T17:08:06.347Z,2.75
2023-03-17T17:10:54.011Z,3.88
2023-03-17T17:13:45.196Z,3.08
2023-03-17T17:16:35.993Z,3.13
2023-03-17T17:19:23.745Z,3.25
2023-03-17T17:22:13.006Z,3.40
2023-03-17T17:25:00.463Z,3.22
2023-03-17T17:27:48.621Z,3.15
2023-03-17T17:30:43.457Z,3.45
2023-03-17T17:33:31.272Z,3.35
2023-03-17T17:36:19.410Z,3.38
2023-03-17T17:39:07.113Z,3.05
2023-03-17T17:41:54.741Z,4.00
2023-03-17T17:44:43.007Z,3.75
2023-03-17T17:47:32.878Z,3.38
2023-03-17T17:50:22.697Z,3.40
2023-03-17T17:53:12.500Z,3.78
2023-03-17T17:55:59.967Z,3.92
2023-03-17T17:58:47.880Z,3.45
2023-03-17T18:01:35.965Z,4.00
2023-03-17T18:04:25.866Z,3.80
2023-03-17T18:07:13.766Z,4.03
2023-03-17T18:10:01.735Z,3.90
2023-03-17T18:12:49.424Z,3.80
2023-03-17T18:15:38.029Z,4.40
2023-03-17T18:18:26.274Z,4.15
2023-03-17T18:21:16.845Z,4.63
2023-03-17T18:24:05.341Z,4.15
2023-03-17T18:26:53.228Z,4.30
2023-03-17T18:29:41.327Z,4.47
2023-03-17T18:32:30.537Z,4.38
2023-03-17T18:35:22.598Z,4.88
2023-03-17T18:38:11.714Z,4.38
2023-03-17T18:40:59.380Z,4.28
2023-03-17T18:43:46.907Z,4.40
2023-03-17T18:46:34.634Z,4.47
2023-03-17T18:49:24.401Z,4.25
2023-03-17T18:52:12.411Z,4.78
2023-03-17T18:55:01.948Z,5.10
2023-03-17T18:57:50.203Z,5.32
2023-03-17T19:00:38.163Z,5.25
2023-03-17T19:03:26.904Z,5.20
2023-03-17T19:06:15.917Z,5.03
2023-03-17T19:09:04.233Z,5.35
2023-03-17T19:11:53.771Z,4.65
2023-03-17T19:14:41.643Z,5.35
2023-03-17T19:17:29.679Z,5.22
2023-03-17T19:20:17.547Z,6.00
2023-03-17T19:23:06.099Z,5.70
2023-03-17T19:25:54.321Z,5.45
2023-03-17T19:28:43.957Z,5.60
2023-03-17T19:31:31.977Z,5.38
2023-03-17T19:34:19.798Z,5.50
2023-03-17T19:37:07.812Z,5.18
2023-03-17T19:39:55.608Z,6.05
2023-03-17T19:42:43.638Z,5.85
2023-03-17T19:45:33.052Z,5.93
2023-03-17T19:48:21.956Z,6.03
2023-03-17T19:51:10.293Z,7.30
2023-03-17T19:53:58.297Z,6.65
2023-03-17T19:56:47.638Z,6.93
2023-03-17T19:59:35.805Z,7.45
2023-03-17T20:02:25.285Z,6.55
2023-03-17T20:05:13.588Z,6.43
2023-03-17T20:08:01.842Z,7.53
2023-03-17T20:10:52.580Z,7.65
2023-03-17T20:13:41.227Z,8.07
2023-03-17T20:16:30.600Z,8.18
2023-03-17T20:19:20.600Z,7.00
2023-03-17T20:22:08.975Z,8.02
2023-03-17T20:24:57.114Z,7.47
2023-03-17T20:27:45.093Z,9.43
2023-03-17T20:30:33.617Z,8.25
2023-03-17T20:33:22.086Z,7.97
2023-03-17T20:36:13.024Z,8.27
2023-03-17T20:39:00.664Z,7.68
2023-03-17T20:41:49.649Z,8.35
2023-03-17T20:44:37.881Z,8.00
2023-03-17T20:47:26.094Z,8.35
2023-03-17T20:50:15.269Z,9.68
2023-03-17T20:53:04.445Z,9.07
2023-03-17T20:55:52.608Z,9.73
2023-03-17T20:58:40.604Z,8.75
2023-03-17T21:01:29.773Z,9.27
2023-03-17T21:04:18.148Z,9.70
2023-03-17T21:07:05.956Z,9.57
2023-03-17T21:09:56.861Z,8.60
2023-03-17T21:12:44.409Z,9.50
2023-03-17T21:15:32.385Z,9.63
2023-03-17T21:18:20.252Z,9.70
2023-03-17T21:21:08.299Z,10.02
2023-03-17T21:23:57.270Z,10.07
2023-03-17T21:26:46.748Z,9.38
2023-03-17T21:29:36.656Z,10.35
2023-03-17T21:32:24.622Z,10.35
2023-03-17T21:35:13.507Z,9.18
2023-03-17T21:38:01.734Z,9.10
2023-03-17T21:40:49.631Z,9.55
2023-03-17T21:43:38.755Z,8.50
2023-03-17T21:46:26.969Z,8.93
2023-03-17T21:49:16.716Z,8.65
2023-03-17T21:52:04.890Z,8.02
2023-03-17T21:54:52.696Z,9.32
2023-03-17T21:57:40.848Z,8.38
2023-03-17T22:00:42.602Z,8.30
2023-03-17T22:03:33.719Z,7.50
2023-03-17T22:06:23.456Z,8.55
2023-03-17T22:09:13.511Z,8.10
2023-03-17T22:12:01.039Z,8.32
2023-03-17T22:14:49.185Z,7.88
2023-03-17T22:17:39.971Z,7.93
2023-03-17T22:20:27.937Z,7.63
2023-03-17T22:23:15.617Z,8.60
2023-03-17T22:26:03.457Z,7.50
2023-03-17T22:28:52.300Z,7.57
2023-03-17T22:31:40.117Z,7.63
2023-03-17T22:34:29.363Z,7.85
2023-03-17T22:37:17.009Z,7.53
2023-03-17T22:40:06.641Z,7.78
2023-03-17T22:42:57.739Z,7.47
2023-03-17T22:45:46.545Z,7.80
2023-03-17T22:48:36.346Z,7.60
2023-03-17T22:51:26.782Z,7.45
2023-03-17T22:54:15.115Z,7.53
2023-03-17T22:57:04.524Z,7.32
2023-03-17T22:59:55.735Z,7.05
2023-03-17T23:02:44.131Z,7.20
2023-03-17T23:05:32.341Z,6.63
2023-03-17T23:08:22.780Z,6.78
2023-03-17T23:11:13.853Z,7.15
2023-03-17T23:14:01.850Z,6.82
2023-03-17T23:16:49.381Z,7.10
2023-03-17T23:19:37.223Z,7.13
2023-03-17T23:22:25.072Z,7.22
2023-03-17T23:25:14.742Z,7.25
2023-03-17T23:28:02.533Z,7.80
2023-03-17T23:30:50.699Z,7.90
2023-03-17T23:33:39.209Z,7.35
2023-03-17T23:36:26.968Z,8.15
2023-03-17T23:39:14.749Z,7.55
2023-03-17T23:42:04.363Z,7.40
2023-03-17T23:44:52.641Z,7.95
2023-03-17T23:47:40.920Z,7.60
2023-03-17T23:50:28.706Z,6.95
2023-03-17T23:53:16.796Z,6.80
2023-03-17T23:56:05.172Z,7.25
2023-03-17T23:58:55.079Z,7.20
